createdAt,value
2022-11-19T00:04:51.336Z,13.51
2022-11-19T00:14:52.791Z,13.48
2022-11-19T00:24:54.290Z,13.47
2022-11-19T00:34:55.784Z,13.41
2022-11-19T00:44:57.159Z,13.40
2022-11-19T00:54:58.688Z,13.38
2022-11-19T01:05:00.074Z,13.38
2022-11-19T01:15:01.703Z,13.40
2022-11-19T01:25:03.110Z,13.39
2022-11-19T01:35:05.187Z,13.33
2022-11-19T01:45:07.595Z,13.34
2022-11-19T01:55:09.107Z,13.34
2022-11-19T02:05:10.473Z,13.34
2022-11-19T02:15:36.528Z,13.35
2022-11-19T02:25:56.046Z,13.30
2022-11-19T02:36:05.922Z,13.28
2022-11-19T02:46:13.238Z,13.26
2022-11-19T02:56:17.518Z,13.23
2022-11-19T03:06:20.787Z,13.19
2022-11-19T03:16:42.722Z,13.13
2022-11-19T03:26:46.714Z,13.04
2022-11-19T03:36:48.433Z,12.91
2022-11-19T03:46:52.399Z,12.78
2022-11-19T03:56:53.796Z,12.65
2022-11-19T04:06:55.300Z,12.49
2022-11-19T04:16:56.886Z,12.32
2022-11-19T04:26:58.375Z,12.22
2022-11-19T04:36:59.802Z,12.08
2022-11-19T04:47:02.381Z,11.91
2022-11-19T04:57:03.806Z,11.83
2022-11-19T05:07:05.309Z,11.74
2022-11-19T05:17:06.882Z,11.63
2022-11-19T05:27:08.259Z,11.71
2022-11-19T05:37:09.720Z,11.72
2022-11-19T05:47:11.302Z,11.87
2022-11-19T05:57:12.725Z,11.92
2022-11-19T06:07:14.270Z,11.97
2022-11-19T06:17:16.201Z,11.90
2022-11-19T06:27:17.575Z,12.02
2022-11-19T06:37:19.503Z,12.14
2022-11-19T06:47:20.975Z,12.08
2022-11-19T06:57:22.453Z,12.07
2022-11-19T07:07:23.898Z,12.10
2022-11-19T07:17:25.467Z,12.10
2022-11-19T07:27:26.872Z,12.11
2022-11-19T07:37:28.269Z,12.12
2022-11-19T07:47:29.747Z,12.20
2022-11-19T07:57:31.160Z,12.19
2022-11-19T08:07:32.603Z,12.28
2022-11-19T08:17:52.573Z,12.13
2022-11-19T08:27:53.950Z,12.27
2022-11-19T08:37:55.384Z,12.33
2022-11-19T08:47:57.136Z,12.27
2022-11-19T08:58:00.387Z,12.38
2022-11-19T09:08:01.977Z,12.47
2022-11-19T09:18:05.348Z,12.50
2022-11-19T09:38:45.417Z,12.51
2022-11-19T09:48:46.868Z,12.55
2022-11-19T09:58:48.412Z,12.59
2022-11-19T10:09:11.302Z,12.59
2022-11-19T10:19:41.331Z,12.71
2022-11-19T10:29:42.707Z,12.63
2022-11-19T10:39:48.008Z,12.82
2022-11-19T10:49:53.868Z,12.70
2022-11-19T10:59:55.243Z,12.74
2022-11-19T11:09:56.772Z,12.77
2022-11-19T11:20:01.110Z,12.89
2022-11-19T11:30:21.166Z,13.10
2022-11-19T11:40:23.235Z,13.13
2022-11-19T11:50:26.050Z,12.97
2022-11-19T12:00:30.395Z,13.05
2022-11-19T12:10:53.456Z,13.01
2022-11-19T12:21:11.466Z,12.95
2022-11-19T12:31:30.318Z,12.93
2022-11-19T12:41:47.953Z,12.94
2022-11-19T12:52:02.824Z,12.89
2022-11-19T13:02:10.771Z,12.86
2022-11-19T13:12:17.296Z,12.94
2022-11-19T13:22:21.876Z,12.82
2022-11-19T13:32:38.893Z,12.72
2022-11-19T13:43:17.573Z,12.77
2022-11-19T13:53:22.272Z,12.57
2022-11-19T14:04:14.591Z,12.59
2022-11-19T14:14:44.332Z,12.61
2022-11-19T14:25:04.021Z,12.56
2022-11-19T14:35:07.270Z,12.44
2022-11-19T14:45:08.482Z,12.31
2022-11-19T14:55:41.373Z,12.37
2022-11-19T15:05:43.909Z,12.24
2022-11-19T15:15:45.826Z,12.17
2022-11-19T15:26:21.288Z,12.11
2022-11-19T15:36:30.021Z,12.07
2022-11-19T15:46:43.846Z,11.98
2022-11-19T15:56:49.078Z,11.97
2022-11-19T16:06:50.981Z,11.87
2022-11-19T16:17:10.819Z,11.78
2022-11-19T16:27:22.981Z,11.78
2022-11-19T16:37:24.925Z,11.69
2022-11-19T16:47:33.620Z,11.65
2022-11-19T16:57:35.078Z,11.63
2022-11-19T17:07:36.919Z,11.58
2022-11-19T17:17:41.104Z,11.55
2022-11-19T17:27:42.791Z,11.55
2022-11-19T17:37:44.342Z,11.47
2022-11-19T17:47:45.715Z,11.45
2022-11-19T17:57:47.116Z,11.38
2022-11-19T18:07:48.537Z,11.32
2022-11-19T18:17:50.099Z,11.39
2022-11-19T18:27:51.503Z,11.31
2022-11-19T18:37:53.053Z,11.27
2022-11-19T18:47:54.522Z,11.24
2022-11-19T18:57:56.116Z,11.12
2022-11-19T19:07:57.778Z,11.21
2022-11-19T19:18:02.395Z,11.22
2022-11-19T19:28:06.447Z,11.19
2022-11-19T19:38:08.021Z,11.10
2022-11-19T19:48:19.981Z,11.06
2022-11-19T19:58:25.247Z,11.01
2022-11-19T20:08:30.901Z,10.97
2022-11-19T20:18:32.980Z,10.90
2022-11-19T20:28:34.468Z,10.92
2022-11-19T20:38:37.289Z,10.86
2022-11-19T20:48:39.099Z,10.84
2022-11-19T20:58:40.581Z,10.85
2022-11-19T21:08:41.969Z,10.81
2022-11-19T21:18:43.716Z,10.77
2022-11-19T21:28:47.017Z,10.67
2022-11-19T21:38:48.416Z,10.68
2022-11-19T21:48:49.802Z,10.63
2022-11-19T21:58:51.319Z,10.58
2022-11-19T22:08:52.849Z,10.55
2022-11-19T22:18:54.253Z,10.49
2022-11-19T22:28:55.707Z,10.42
2022-11-19T22:38:57.099Z,10.30
2022-11-19T22:48:58.461Z,10.24
2022-11-19T22:58:59.846Z,10.22
2022-11-19T23:09:02.179Z,10.18
2022-11-19T23:19:03.720Z,10.16
2022-11-19T23:29:05.109Z,10.15
2022-11-19T23:39:08.010Z,10.07
2022-11-19T23:49:10.490Z,10.09
2022-11-19T23:59:12.435Z,10.07
